createdAt,value
2016-09-20T13:32:31.897Z,1013.61
2016-09-20T13:33:31.837Z,1013.59
2016-09-20T13:34:31.767Z,1013.58
2016-09-20T13:35:31.708Z,1013.59
2016-09-20T13:36:31.648Z,1013.59
2016-09-20T13:37:31.779Z,1013.55
2016-09-20T13:38:31.513Z,1013.53
2016-09-20T13:39:31.649Z,1013.53
2016-09-20T13:40:31.388Z,1013.55
2016-09-20T13:41:31.323Z,1013.52
2016-09-20T13:42:31.259Z,1013.49
2016-09-20T13:43:31.202Z,1013.52
2016-09-20T13:44:31.341Z,1013.54
2016-09-20T13:45:31.376Z,1013.52
2016-09-20T13:46:31.214Z,1013.55
2016-09-20T13:47:30.959Z,1013.53
2016-09-20T13:48:30.892Z,1013.52
2016-09-20T13:49:30.837Z,1013.53
2016-09-20T13:50:31.017Z,1013.5
2016-09-20T13:51:30.705Z,1013.51
2016-09-20T13:52:30.648Z,1013.56
2016-09-20T13:53:30.784Z,1013.53
2016-09-20T13:54:30.527Z,1013.49
2016-09-20T13:55:30.466Z,1013.54
2016-09-20T13:56:30.400Z,1013.54
2016-09-20T13:57:30.344Z,1013.5
2016-09-20T13:58:30.283Z,1013.47
2016-09-20T13:59:30.219Z,1013.47
2016-09-20T14:00:30.171Z,1013.46
2016-09-20T14:01:30.304Z,1013.46
2016-09-20T14:02:30.048Z,1013.45
2016-09-20T14:03:29.975Z,1013.42
2016-09-20T14:04:29.916Z,1013.44
2016-09-20T14:05:29.869Z,1013.42
2016-09-20T14:06:29.818Z,1013.4
2016-09-20T14:07:29.730Z,1013.45
2016-09-20T14:08:29.669Z,1013.48
2016-09-20T14:09:29.612Z,1013.47
2016-09-20T14:10:29.548Z,1013.45
2016-09-20T14:11:29.489Z,1013.47
2016-09-20T14:12:29.432Z,1013.44
2016-09-20T14:13:29.373Z,1013.45
2016-09-20T14:14:29.305Z,1013.43
2016-09-20T14:15:29.244Z,1013.46
2016-09-20T14:16:29.185Z,1013.44
2016-09-20T14:17:29.124Z,1013.38
2016-09-20T14:18:29.070Z,1013.42
2016-09-20T14:19:29.003Z,1013.37
2016-09-20T14:20:28.941Z,1013.38
2016-09-20T14:21:29.082Z,1013.4
2016-09-20T14:22:28.822Z,1013.45
2016-09-20T14:23:28.772Z,1013.42
2016-09-20T14:24:28.700Z,1013.47
2016-09-20T14:25:28.639Z,1013.48
2016-09-20T14:26:28.576Z,1013.45
2016-09-20T14:27:28.524Z,1013.48
2016-09-20T14:28:28.463Z,1013.48
2016-09-20T14:29:28.395Z,1013.47
2016-09-20T14:30:28.335Z,1013.46
2016-09-20T14:31:28.274Z,1013.48
2016-09-20T14:32:28.215Z,1013.47
2016-09-20T14:33:28.153Z,1013.45
2016-09-20T14:34:28.093Z,1013.47
2016-09-20T14:35:28.051Z,1013.47
2016-09-20T14:36:27.970Z,1013.43
2016-09-20T14:37:27.912Z,1013.45
2016-09-20T14:38:27.850Z,1013.43
2016-09-20T14:39:27.790Z,1013.47
2016-09-20T14:40:27.734Z,1013.46
2016-09-20T14:41:27.668Z,1013.43
2016-09-20T14:42:27.607Z,1013.41
2016-09-20T14:43:27.751Z,1013.36
2016-09-20T14:44:27.488Z,1013.4
2016-09-20T14:45:27.426Z,1013.36
2016-09-20T14:46:27.367Z,1013.39
2016-09-20T14:47:27.305Z,1013.36
2016-09-20T14:48:27.242Z,1013.37
2016-09-20T14:49:27.387Z,1013.35
2016-09-20T14:50:27.125Z,1013.31
2016-09-20T14:51:27.066Z,1013.36
2016-09-20T14:52:27.019Z,1013.34
2016-09-20T14:53:26.942Z,1013.38
2016-09-20T14:54:26.883Z,1013.32
2016-09-20T14:55:26.825Z,1013.32
2016-09-20T14:56:26.759Z,1013.32
2016-09-20T14:57:26.699Z,1013.31
2016-09-20T14:58:26.638Z,1013.32
2016-09-20T14:59:26.584Z,1013.28
2016-09-20T15:00:26.720Z,1013.28
2016-09-20T15:01:26.455Z,1013.32
2016-09-20T15:02:26.395Z,1013.3
2016-09-20T15:03:26.334Z,1013.32
2016-09-20T15:04:26.475Z,1013.29
2016-09-20T15:05:26.213Z,1013.29
2016-09-20T15:06:26.171Z,1013.29
2016-09-20T15:07:26.093Z,1013.31
2016-09-20T15:08:26.038Z,1013.27
2016-09-20T15:09:25.971Z,1013.28
2016-09-20T15:10:25.912Z,1013.29
2016-09-20T15:11:25.857Z,1013.27
2016-09-20T15:12:25.790Z,1013.3
2016-09-20T15:13:25.933Z,1013.3
2016-09-20T15:14:25.672Z,1013.3
2016-09-20T15:15:25.607Z,1013.27
2016-09-20T15:16:25.551Z,1013.28
2016-09-20T15:17:25.492Z,1013.28
2016-09-20T15:18:25.426Z,1013.26
2016-09-20T15:19:25.570Z,1013.28
2016-09-20T15:20:25.306Z,1013.31
2016-09-20T15:21:25.245Z,1013.26
2016-09-20T15:22:25.185Z,1013.3
2016-09-20T15:23:25.123Z,1013.32
2016-09-20T15:24:25.061Z,1013.29
2016-09-20T15:25:25.006Z,1013.28
2016-09-20T15:26:24.943Z,1013.28
2016-09-20T15:27:24.881Z,1013.31
2016-09-20T15:28:24.825Z,1013.3
2016-09-20T15:29:24.758Z,1013.3
2016-09-20T15:30:24.950Z,1013.34
2016-09-20T15:31:24.651Z,1013.28
2016-09-20T15:32:24.580Z,1013.33
2016-09-20T15:33:24.521Z,1013.34
2016-09-20T15:34:24.460Z,1013.31
2016-09-20T15:35:24.403Z,1013.32
2016-09-20T15:36:24.335Z,1013.34
2016-09-20T15:37:24.273Z,1013.33
2016-09-20T15:38:24.213Z,1013.36
2016-09-20T15:39:24.152Z,1013.32
2016-09-20T15:40:24.098Z,1013.36
2016-09-20T15:41:24.234Z,1013.33
2016-09-20T15:42:23.978Z,1013.31
2016-09-20T15:43:23.912Z,1013.33
2016-09-20T15:44:23.848Z,1013.33
2016-09-20T15:45:23.788Z,1013.36
2016-09-20T15:46:23.729Z,1013.35
2016-09-20T15:47:23.670Z,1013.36
2016-09-20T15:48:23.608Z,1013.35
2016-09-20T15:49:23.547Z,1013.38
2016-09-20T15:50:23.488Z,1013.34
2016-09-20T15:51:23.424Z,1013.35
2016-09-20T15:52:23.573Z,1013.33
2016-09-20T15:53:23.304Z,1013.35
2016-09-20T15:54:23.244Z,1013.35
2016-09-20T15:55:23.186Z,1013.35
2016-09-20T15:56:23.123Z,1013.33
2016-09-20T15:57:23.063Z,1013.33
2016-09-20T15:58:23.000Z,1013.35
2016-09-20T15:59:22.941Z,1013.37
2016-09-20T16:00:22.879Z,1013.4
2016-09-20T16:01:22.822Z,1013.38
2016-09-20T16:02:22.759Z,1013.42
2016-09-20T16:03:22.698Z,1013.41
2016-09-20T16:04:22.643Z,1013.39
2016-09-20T16:05:22.577Z,1013.39
2016-09-20T16:06:22.532Z,1013.39
2016-09-20T16:07:22.454Z,1013.37
2016-09-20T16:08:22.394Z,1013.4
2016-09-20T16:09:22.334Z,1013.41
2016-09-20T16:10:22.272Z,1013.4
2016-09-20T16:11:22.215Z,1013.43
2016-09-20T16:12:22.151Z,1013.41
2016-09-20T16:13:22.090Z,1013.42
2016-09-20T16:14:22.031Z,1013.41
2016-09-20T16:15:21.976Z,1013.42
2016-09-20T16:16:21.917Z,1013.43
2016-09-20T16:17:21.852Z,1013.45
2016-09-20T16:18:21.796Z,1013.45
2016-09-20T16:19:21.732Z,1013.42
2016-09-20T16:20:21.668Z,1013.44
2016-09-20T16:21:21.606Z,1013.42
2016-09-20T16:22:21.550Z,1013.47
2016-09-20T16:23:21.485Z,1013.5
2016-09-20T16:24:21.423Z,1013.46
2016-09-20T16:25:21.372Z,1013.45
2016-09-20T16:26:21.302Z,1013.51
2016-09-20T16:27:21.240Z,1013.46
2016-09-20T16:28:21.182Z,1013.48
2016-09-20T16:29:21.323Z,1013.52
2016-09-20T16:30:21.266Z,1013.5
2016-09-20T16:31:20.997Z,1013.52
2016-09-20T16:32:20.945Z,1013.53
2016-09-20T16:33:20.893Z,1013.54
2016-09-20T16:34:20.823Z,1013.53
2016-09-20T16:35:20.773Z,1013.52
2016-09-20T16:36:20.700Z,1013.52
2016-09-20T16:37:20.639Z,1013.52
2016-09-20T16:38:20.574Z,1013.54
2016-09-20T16:39:20.527Z,1013.49
2016-09-20T16:40:20.460Z,1013.52
2016-09-20T16:41:20.403Z,1013.52
2016-09-20T16:42:20.345Z,1013.54
2016-09-20T16:43:20.272Z,1013.54
2016-09-20T16:44:20.215Z,1013.58
2016-09-20T16:45:20.168Z,1013.54
2016-09-20T16:46:20.091Z,1013.54
2016-09-20T16:47:20.031Z,1013.58
2016-09-20T16:48:19.969Z,1013.54
2016-09-20T16:49:19.909Z,1013.55
2016-09-20T16:50:19.847Z,1013.54
2016-09-20T16:51:19.792Z,1013.55
2016-09-20T16:52:19.724Z,1013.57
2016-09-20T16:53:19.664Z,1013.57
2016-09-20T16:54:19.623Z,1013.51
2016-09-20T16:55:19.545Z,1013.57
2016-09-20T16:56:19.496Z,1013.57
2016-09-20T16:57:19.422Z,1013.56
2016-09-20T16:58:19.363Z,1013.56
2016-09-20T16:59:19.301Z,1013.57
2016-09-20T17:00:19.251Z,1013.54
2016-09-20T17:01:19.187Z,1013.54
2016-09-20T17:02:19.121Z,1013.56
2016-09-20T17:03:19.064Z,1013.56
2016-09-20T17:04:18.998Z,1013.56
2016-09-20T17:05:18.940Z,1013.58
2016-09-20T17:06:18.879Z,1013.6
2016-09-20T17:07:18.818Z,1013.57
2016-09-20T17:08:18.756Z,1013.63
2016-09-20T17:09:18.698Z,1013.6
2016-09-20T17:10:18.838Z,1013.63
2016-09-20T17:11:18.577Z,1013.64
2016-09-20T17:12:18.516Z,1013.6
2016-09-20T17:13:18.654Z,1013.62
2016-09-20T17:14:18.391Z,1013.65
2016-09-20T17:15:18.333Z,1013.64
2016-09-20T17:16:18.273Z,1013.64
2016-09-20T17:17:18.211Z,1013.63
2016-09-20T17:18:18.150Z,1013.65
2016-09-20T17:19:18.093Z,1013.64
2016-09-20T17:20:18.038Z,1013.64
2016-09-20T17:21:17.974Z,1013.61
2016-09-20T17:22:17.906Z,1013.65
2016-09-20T17:23:17.846Z,1013.67
2016-09-20T17:24:17.785Z,1013.66
2016-09-20T17:25:17.725Z,1013.67
2016-09-20T17:26:17.665Z,1013.68
2016-09-20T17:27:17.603Z,1013.68
2016-09-20T17:28:17.546Z,1013.69
2016-09-20T17:29:17.686Z,1013.72
2016-09-20T17:30:17.421Z,1013.72
2016-09-20T17:31:17.361Z,1013.73
2016-09-20T17:32:17.321Z,1013.72
2016-09-20T17:33:17.242Z,1013.72
2016-09-20T17:34:17.181Z,1013.72
2016-09-20T17:35:17.130Z,1013.74
2016-09-20T17:36:18.258Z,1013.75
2016-09-20T17:37:16.996Z,1013.74
2016-09-20T17:38:16.938Z,1013.74
2016-09-20T17:39:16.876Z,1013.74
2016-09-20T17:40:17.019Z,1013.76
2016-09-20T17:41:16.768Z,1013.75
2016-09-20T17:42:16.693Z,1013.8
2016-09-20T17:43:16.640Z,1013.78
2016-09-20T17:44:16.576Z,1013.81
2016-09-20T17:45:16.510Z,1013.78
2016-09-20T17:46:16.449Z,1013.77
2016-09-20T17:47:16.388Z,1013.8
2016-09-20T17:48:16.330Z,1013.79
2016-09-20T17:49:16.268Z,1013.8
2016-09-20T17:50:16.212Z,1013.84
2016-09-20T17:51:16.154Z,1013.84
2016-09-20T17:52:16.087Z,1013.81
2016-09-20T17:53:16.228Z,1013.83
2016-09-20T17:54:15.987Z,1013.8
2016-09-20T17:55:16.107Z,1013.83
2016-09-20T17:56:15.842Z,1013.82
2016-09-20T17:57:15.788Z,1013.81
2016-09-20T17:58:15.730Z,1013.86
2016-09-20T17:59:15.665Z,1013.85
2016-09-20T18:00:15.601Z,1013.87
2016-09-20T18:01:15.541Z,1013.83
2016-09-20T18:02:15.479Z,1013.85
2016-09-20T18:03:15.418Z,1013.87
2016-09-20T18:04:15.359Z,1013.86
2016-09-20T18:05:15.297Z,1013.86
2016-09-20T18:06:15.236Z,1013.89
2016-09-20T18:07:15.174Z,1013.85
2016-09-20T18:08:15.117Z,1013.91
2016-09-20T18:09:15.263Z,1013.9
2016-09-20T18:10:14.992Z,1013.9
2016-09-20T18:11:14.933Z,1013.91
2016-09-20T18:12:14.873Z,1013.89
2016-09-20T18:13:15.026Z,1013.89
2016-09-20T18:14:14.755Z,1013.89
2016-09-20T18:15:14.719Z,1013.87
2016-09-20T18:16:14.630Z,1013.89
2016-09-20T18:17:14.570Z,1013.89
2016-09-20T18:18:14.509Z,1013.91
2016-09-20T18:19:14.450Z,1013.91
2016-09-20T18:20:14.393Z,1013.93
2016-09-20T18:21:14.327Z,1013.91
2016-09-20T18:22:14.270Z,1013.91
2016-09-20T18:23:14.206Z,1013.96
2016-09-20T18:24:14.144Z,1013.94
2016-09-20T18:25:14.084Z,1013.95
2016-09-20T18:26:14.046Z,1013.95
2016-09-20T18:27:13.965Z,1013.95
2016-09-20T18:28:13.901Z,1013.94
2016-09-20T18:29:13.840Z,1013.99
2016-09-20T18:30:13.790Z,1013.97
2016-09-20T18:31:13.921Z,1013.94
2016-09-20T18:32:13.861Z,1013.96
2016-09-20T18:33:13.597Z,1013.96
2016-09-20T18:34:13.544Z,1014.02
2016-09-20T18:35:13.481Z,1014.01
2016-09-20T18:36:13.417Z,1014.01
2016-09-20T18:37:13.355Z,1013.99
2016-09-20T18:38:13.298Z,1013.98
2016-09-20T18:39:13.231Z,1013.97
2016-09-20T18:40:13.176Z,1013.98
2016-09-20T18:41:13.111Z,1014.01
2016-09-20T18:42:13.057Z,1013.99
2016-09-20T18:43:12.989Z,1013.98
2016-09-20T18:44:12.931Z,1014.04
2016-09-20T18:45:12.872Z,1014
2016-09-20T18:46:12.806Z,1013.99
2016-09-20T18:47:12.745Z,1013.98
2016-09-20T18:48:12.690Z,1014.02
2016-09-20T18:49:12.623Z,1014
2016-09-20T18:50:12.579Z,1014
2016-09-20T18:51:12.503Z,1014
2016-09-20T18:52:12.472Z,1013.97
2016-09-20T18:53:12.383Z,1013.98
2016-09-20T18:54:12.322Z,1013.96
2016-09-20T18:55:12.266Z,1014
2016-09-20T18:56:12.202Z,1013.98
2016-09-20T18:57:12.137Z,1014.03
2016-09-20T18:58:12.081Z,1014.01
2016-09-20T18:59:12.017Z,1014.03
2016-09-20T19:00:11.955Z,1014.02
2016-09-20T19:01:11.896Z,1014.01
2016-09-20T19:02:11.845Z,1014
2016-09-20T19:03:11.773Z,1014
2016-09-20T19:04:11.712Z,1013.99
2016-09-20T19:05:11.671Z,1014.02
2016-09-20T19:06:11.591Z,1014.01
2016-09-20T19:07:11.538Z,1013.98
2016-09-20T19:08:12.765Z,1014
2016-09-20T19:09:11.409Z,1013.99
2016-09-20T19:10:11.347Z,1014.01
2016-09-20T19:11:11.287Z,1014.04
2016-09-20T19:12:11.238Z,1014.03
2016-09-20T19:13:11.165Z,1014.03
2016-09-20T19:14:11.105Z,1014.02
2016-09-20T19:15:11.042Z,1014.02
2016-09-20T19:16:10.980Z,1014.01
2016-09-20T19:17:10.925Z,1014.03
2016-09-20T19:18:10.874Z,1014.03
2016-09-20T19:19:10.800Z,1014
2016-09-20T19:20:10.740Z,1014.03
2016-09-20T19:21:10.679Z,1014.03
2016-09-20T19:22:10.614Z,1014.04
2016-09-20T19:23:11.758Z,1014
2016-09-20T19:24:10.494Z,1014
2016-09-20T19:25:10.431Z,1014.05
2016-09-20T19:26:10.371Z,1014.01
2016-09-20T19:27:10.311Z,1014.04
2016-09-20T19:28:10.255Z,1014.03
2016-09-20T19:29:10.390Z,1014.01
2016-09-20T19:30:10.134Z,1014.05
2016-09-20T19:31:10.065Z,1014.02
2016-09-20T19:32:10.040Z,1013.97
2016-09-20T19:33:09.943Z,1014.03
2016-09-20T19:34:09.899Z,1014
2016-09-20T19:35:09.844Z,1014.05
2016-09-20T19:36:09.760Z,1014.05
2016-09-20T19:37:09.700Z,1014.04
2016-09-20T19:38:09.643Z,1014.05
2016-09-20T19:39:09.577Z,1014.04
2016-09-20T19:40:09.517Z,1014.03
2016-09-20T19:41:09.458Z,1014.04
2016-09-20T19:42:09.393Z,1014.06
2016-09-20T19:43:09.333Z,1014.01
2016-09-20T19:44:09.272Z,1014.04
2016-09-20T19:45:09.215Z,1014.02
2016-09-20T19:46:09.149Z,1014.07
2016-09-20T19:47:09.088Z,1014.06
2016-09-20T19:48:09.029Z,1014.07
2016-09-20T19:49:08.967Z,1014.08
2016-09-20T19:50:08.903Z,1014.07
2016-09-20T19:51:08.843Z,1014.06
2016-09-20T19:52:08.797Z,1014.09
2016-09-20T19:53:08.724Z,1014.1
2016-09-20T19:54:08.662Z,1014.12
2016-09-20T19:55:08.599Z,1014.12
2016-09-20T19:56:08.541Z,1014.2
2016-09-20T19:57:08.478Z,1014.12
2016-09-20T19:58:08.421Z,1014.13
2016-09-20T19:59:08.357Z,1014.14
2016-09-20T20:00:08.295Z,1014.13
2016-09-20T20:01:08.247Z,1014.14
2016-09-20T20:02:08.173Z,1014.12
2016-09-20T20:03:08.113Z,1014.13
2016-09-20T20:04:08.052Z,1014.14
2016-09-20T20:05:07.993Z,1014.17
2016-09-20T20:06:07.937Z,1014.16
2016-09-20T20:07:07.868Z,1014.16
2016-09-20T20:08:07.819Z,1014.15
2016-09-20T20:09:07.749Z,1014.15
2016-09-20T20:10:07.689Z,1014.14
2016-09-20T20:11:07.624Z,1014.15
2016-09-20T20:12:07.606Z,1014.12
2016-09-20T20:13:07.500Z,1014.15
2016-09-20T20:14:07.443Z,1014.16
2016-09-20T20:15:07.379Z,1014.14
2016-09-20T20:16:07.317Z,1014.16
2016-09-20T20:17:07.257Z,1014.14
2016-09-20T20:18:07.198Z,1014.15
2016-09-20T20:19:07.135Z,1014.16
2016-09-20T20:20:07.277Z,1014.18
2016-09-20T20:21:07.013Z,1014.13
2016-09-20T20:22:06.958Z,1014.13
2016-09-20T20:23:06.907Z,1014.18
2016-09-20T20:24:06.829Z,1014.13
2016-09-20T20:25:06.769Z,1014.15
2016-09-20T20:26:06.710Z,1014.15
2016-09-20T20:27:06.650Z,1014.16
2016-09-20T20:28:06.587Z,1014.17
2016-09-20T20:29:06.528Z,1014.17
2016-09-20T20:30:06.470Z,1014.13
2016-09-20T20:31:06.405Z,1014.19
2016-09-20T20:32:06.343Z,1014.15
2016-09-20T20:33:06.280Z,1014.17
2016-09-20T20:34:06.235Z,1014.2
2016-09-20T20:35:06.158Z,1014.16
2016-09-20T20:36:06.099Z,1014.16
2016-09-20T20:37:06.240Z,1014.14
2016-09-20T20:38:05.977Z,1014.14
2016-09-20T20:39:05.913Z,1014.15
2016-09-20T20:40:05.854Z,1014.15
2016-09-20T20:41:05.795Z,1014.17
2016-09-20T20:42:05.732Z,1014.17
2016-09-20T20:43:05.670Z,1014.16
2016-09-20T20:44:05.613Z,1014.16
2016-09-20T20:45:05.549Z,1014.21
2016-09-20T20:46:05.488Z,1014.17
2016-09-20T20:47:05.430Z,1014.18
2016-09-20T20:48:05.386Z,1014.15
2016-09-20T20:49:05.313Z,1014.18
2016-09-20T20:50:05.257Z,1014.18
2016-09-20T20:51:05.190Z,1014.16
2016-09-20T20:52:05.324Z,1014.15
2016-09-20T20:53:05.062Z,1014.16
2016-09-20T20:54:05.000Z,1014.15
2016-09-20T20:55:04.941Z,1014.14
2016-09-20T20:56:04.878Z,1014.16
2016-09-20T20:57:04.817Z,1014.18
2016-09-20T20:58:04.758Z,1014.17
2016-09-20T20:59:04.696Z,1014.19
2016-09-20T21:00:04.635Z,1014.19
2016-09-20T21:01:04.571Z,1014.21
2016-09-20T21:02:04.511Z,1014.19
2016-09-20T21:03:04.451Z,1014.17
2016-09-20T21:04:04.399Z,1014.17
2016-09-20T21:05:04.328Z,1014.15
2016-09-20T21:06:04.273Z,1014.18
2016-09-20T21:07:04.211Z,1014.14
2016-09-20T21:08:04.146Z,1014.17
2016-09-20T21:09:04.085Z,1014.09
2016-09-20T21:10:04.034Z,1014.14
2016-09-20T21:11:03.972Z,1014.11
2016-09-20T21:12:04.103Z,1014.15
2016-09-20T21:13:03.840Z,1014.12
2016-09-20T21:14:03.815Z,1014.13
2016-09-20T21:15:03.719Z,1014.17
2016-09-20T21:16:03.657Z,1014.17
2016-09-20T21:17:03.596Z,1014.15
2016-09-20T21:18:03.535Z,1014.13
2016-09-20T21:19:03.474Z,1014.16
2016-09-20T21:20:03.415Z,1014.14
2016-09-20T21:21:03.359Z,1014.17
2016-09-20T21:22:03.296Z,1014.12
2016-09-20T21:23:03.234Z,1014.13
2016-09-20T21:24:03.175Z,1014.16
2016-09-20T21:25:03.111Z,1014.14
2016-09-20T21:26:03.054Z,1014.18
2016-09-20T21:27:02.995Z,1014.18
2016-09-20T21:28:02.927Z,1014.2
2016-09-20T21:29:02.868Z,1014.19
2016-09-20T21:30:02.813Z,1014.19
2016-09-20T21:31:02.743Z,1014.2
2016-09-20T21:32:02.685Z,1014.17
2016-09-20T21:33:02.621Z,1014.22
2016-09-20T21:34:02.578Z,1014.2
2016-09-20T21:35:02.501Z,1014.27
2016-09-20T21:36:02.441Z,1014.22
2016-09-20T21:37:02.382Z,1014.28
2016-09-20T21:38:02.317Z,1014.29
2016-09-20T21:39:02.255Z,1014.3
2016-09-20T21:40:02.199Z,1014.3
2016-09-20T21:41:02.133Z,1014.3
2016-09-20T21:42:02.074Z,1014.25
2016-09-20T21:43:02.012Z,1014.31
2016-09-20T21:44:01.965Z,1014.27
2016-09-20T21:45:01.893Z,1014.3
2016-09-20T21:46:01.829Z,1014.31
2016-09-20T21:47:01.770Z,1014.32
2016-09-20T21:48:01.707Z,1014.31
2016-09-20T21:49:01.645Z,1014.28
2016-09-20T21:50:01.586Z,1014.34
2016-09-20T21:51:01.527Z,1014.33
2016-09-20T21:52:01.465Z,1014.34
2016-09-20T21:53:01.403Z,1014.28
2016-09-20T21:54:01.341Z,1014.3
2016-09-20T21:55:01.281Z,1014.32
2016-09-20T21:56:01.218Z,1014.3
2016-09-20T21:57:01.162Z,1014.28
2016-09-20T21:58:01.099Z,1014.35
2016-09-20T21:59:01.041Z,1014.35
2016-09-20T22:00:00.974Z,1014.34
2016-09-20T22:01:00.921Z,1014.34
2016-09-20T22:02:00.857Z,1014.3
2016-09-20T22:03:00.794Z,1014.31
2016-09-20T22:04:00.733Z,1014.24
2016-09-20T22:05:00.671Z,1014.24
2016-09-20T22:06:00.611Z,1014.21
2016-09-20T22:07:00.554Z,1014.25
2016-09-20T22:08:00.497Z,1014.26
2016-09-20T22:09:00.433Z,1014.22
2016-09-20T22:10:00.369Z,1014.27
2016-09-20T22:11:00.306Z,1014.24
2016-09-20T22:12:00.250Z,1014.27
2016-09-20T22:13:00.182Z,1014.25
2016-09-20T22:14:00.123Z,1014.26
2016-09-20T22:15:00.276Z,1014.18
2016-09-20T22:16:00.002Z,1014.23
2016-09-20T22:17:00.143Z,1014.21
2016-09-20T22:17:59.879Z,1014.21
2016-09-20T22:18:59.819Z,1014.17
2016-09-20T22:19:59.757Z,1014.17
2016-09-20T22:20:59.695Z,1014.15
2016-09-20T22:21:59.634Z,1014.18
2016-09-20T22:22:59.573Z,1014.14
2016-09-20T22:23:59.515Z,1014.18
2016-09-20T22:24:59.452Z,1014.17
2016-09-20T22:25:59.391Z,1014.15
2016-09-20T22:26:59.330Z,1014.2
2016-09-20T22:27:59.271Z,1014.15
2016-09-20T22:28:59.208Z,1014.16
2016-09-20T22:29:59.147Z,1014.17
2016-09-20T22:30:59.088Z,1014.17
2016-09-20T22:31:59.038Z,1014.14
2016-09-20T22:32:58.965Z,1014.1
2016-09-20T22:33:58.908Z,1014.12
2016-09-20T22:34:58.842Z,1014.15
2016-09-20T22:35:58.780Z,1014.12
2016-09-20T22:36:58.720Z,1014.15
2016-09-20T22:37:58.659Z,1014.12
2016-09-20T22:38:58.599Z,1014.07
2016-09-20T22:39:58.536Z,1014.08
2016-09-20T22:40:58.476Z,1014.07
2016-09-20T22:41:58.418Z,1014.06
2016-09-20T22:42:58.359Z,1014.09
2016-09-20T22:43:58.293Z,1014.09
2016-09-20T22:44:58.232Z,1014.15
2016-09-20T22:45:58.173Z,1014.13
2016-09-20T22:46:58.111Z,1014.07
2016-09-20T22:47:58.059Z,1014.1
2016-09-20T22:48:57.990Z,1014.12
2016-09-20T22:49:57.929Z,1014.14
2016-09-20T22:50:57.873Z,1014.14
2016-09-20T22:51:57.816Z,1014.13
2016-09-20T22:52:57.746Z,1014.09
2016-09-20T22:53:57.683Z,1014.07
2016-09-20T22:54:57.623Z,1014.11
2016-09-20T22:55:57.561Z,1014.1
2016-09-20T22:56:57.500Z,1014.13
2016-09-20T22:57:57.443Z,1014.15
2016-09-20T22:58:57.379Z,1014.14
2016-09-20T22:59:57.320Z,1014.11
2016-09-20T23:00:57.257Z,1014.09
2016-09-20T23:01:57.201Z,1014.13
2016-09-20T23:02:57.138Z,1014.12
2016-09-20T23:03:57.075Z,1014.12
2016-09-20T23:04:57.014Z,1014.06
2016-09-20T23:05:56.953Z,1014.09
2016-09-20T23:06:56.892Z,1014.08
2016-09-20T23:07:56.833Z,1014.06
2016-09-20T23:08:56.770Z,1014
2016-09-20T23:09:56.709Z,1014.04
2016-09-20T23:10:56.649Z,1014.01
2016-09-20T23:11:56.591Z,1014.01
2016-09-20T23:12:56.525Z,1014.01
2016-09-20T23:13:56.468Z,1014.02
2016-09-20T23:14:56.404Z,1014.01
2016-09-20T23:15:56.343Z,1013.97
2016-09-20T23:16:56.281Z,1013.98
2016-09-20T23:17:56.221Z,1013.95
2016-09-20T23:18:56.161Z,1013.98
2016-09-20T23:19:56.099Z,1013.92
2016-09-20T23:20:56.043Z,1013.92
2016-09-20T23:21:55.979Z,1013.93
2016-09-20T23:22:55.916Z,1013.94
2016-09-20T23:23:55.855Z,1013.94
2016-09-20T23:24:55.794Z,1013.91
2016-09-20T23:25:55.733Z,1013.94
2016-09-20T23:26:55.673Z,1013.91
2016-09-20T23:27:55.617Z,1013.92
2016-09-20T23:28:55.551Z,1013.91
2016-09-20T23:29:55.493Z,1013.9
2016-09-20T23:30:55.430Z,1013.92
2016-09-20T23:31:55.368Z,1013.9
2016-09-20T23:32:55.307Z,1013.89
2016-09-20T23:33:55.245Z,1013.9
2016-09-20T23:34:55.190Z,1013.9
2016-09-20T23:35:55.125Z,1013.89
2016-09-20T23:36:55.063Z,1013.9
2016-09-20T23:37:55.010Z,1013.9
2016-09-20T23:38:54.940Z,1013.87
2016-09-20T23:39:54.880Z,1013.9
2016-09-20T23:40:54.819Z,1013.89
2016-09-20T23:41:54.756Z,1013.92
2016-09-20T23:42:54.696Z,1013.91
2016-09-20T23:43:54.640Z,1013.95
2016-09-20T23:44:54.573Z,1013.9
2016-09-20T23:45:54.515Z,1013.9
2016-09-20T23:46:54.452Z,1013.89
2016-09-20T23:47:54.394Z,1013.9
2016-09-20T23:48:54.330Z,1013.92
2016-09-20T23:49:54.274Z,1013.9
2016-09-20T23:50:54.208Z,1013.85
2016-09-20T23:51:54.148Z,1013.89
2016-09-20T23:52:54.087Z,1013.89
2016-09-20T23:53:54.029Z,1013.88
2016-09-20T23:54:53.966Z,1013.87
2016-09-20T23:55:53.903Z,1013.86
2016-09-20T23:56:53.841Z,1013.89
2016-09-20T23:57:53.781Z,1013.85
2016-09-20T23:58:53.721Z,1013.83
2016-09-20T23:59:53.659Z,1013.82
